Flight Track Log - Related Links

Times and Time Zones

All times are in EDT time to prevent confusion due to time zone crossing. See the RPA3411 flight status page for this flight to view local times or setup timezone preferences in your user account.

Time Position Orientation Groundspeed Altitude Reporting Facility
EDT Latitude Longitude Course Direction KTS MPH feet Rate Location/Type
Mon 06:23:31 PM 43.6547 -70.4428 216° Southwest 213 245 4,900  Level Boston Center
Mon 06:24:00 PM 43.4729 -70.2468 229° Southwest  Level FlightAware Approximate
Mon 06:24:31 PM 43.6603 -70.5403 275° West 254 292 9,200  Level Boston Center
Mon 06:25:00 PM 43.4198 -70.3437 235° Southwest  Level FlightAware Approximate
Mon 06:25:35 PM 43.5922 -70.5919 209° Southwest 314 361 10,100  Level Boston Center
Mon 06:26:00 PM 43.3587 -70.4312 226° Southwest  Level FlightAware Approximate
Mon 06:26:35 PM 43.4956 -70.6206 192° South 331 381 13,500  Level Boston Center
Mon 06:27:00 PM 43.3012 -70.5230 232° Southwest  Level FlightAware Approximate
Mon 06:27:36 PM 43.4072 -70.6464 192° South 327 376 16,900  Level Boston Center
Mon 06:28:00 PM 43.2395 -70.6105 216° Southwest  Level FlightAware Approximate
Mon 06:28:37 PM 43.3206 -70.6739 193° South 335 386 19,200  Level Boston Center
Mon 06:29:40 PM 43.2322 -70.6992 192° South 338 389 21,800 2,710 Climbing Boston Center
Mon 06:30:41 PM 43.1231 -70.7492 198° South 344 396 24,800 2,459 Climbing Boston Center
Mon 06:31:42 PM 43.0394 -70.8094 208° Southwest 341 392 26,800 1,561 Climbing Boston Center
Mon 06:32:44 PM 42.9533 -70.8714 208° Southwest 348 400 28,000 590 Climbing Boston Center
Mon 06:33:44 PM 42.8664 -70.9308 207° Southwest 351 404 28,000  Level Boston Center
Mon 06:34:48 PM 42.7750 -70.9853 204° Southwest 357 411 28,000 145 Level Boston Center
Mon 06:35:48 PM 42.6806 -71.0300 199° South 360 414 28,300 942 Climbing Boston Center
Mon 06:36:49 PM 42.5947 -71.0958 209° Southwest 357 411 29,900 829 Climbing Boston Center
Mon 06:37:51 PM 42.5147 -71.1719 215° Southwest 353 406 30,000 49 Climbing Boston Center
Mon 06:38:51 PM 42.4192 -71.2636 215° Southwest 353 406 30,000  Level Boston Center
Mon 06:39:54 PM 42.3392 -71.3392 215° Southwest 353 406 30,000  Level Boston Center
Mon 06:40:56 PM 42.2656 -71.4100 215° Southwest 354 407 30,000  Level Boston Center
Mon 06:41:56 PM 42.1844 -71.4853 215° Southwest 354 407 30,000  Level Boston Center
Mon 06:42:57 PM 42.1039 -71.5608 215° Southwest 353 406 30,000  Level Boston Center
Mon 06:43:57 PM 42.0233 -71.6364 215° Southwest 353 406 30,000  Level Boston Center
Mon 06:45:01 PM 41.9411 -71.7108 214° Southwest 356 410 30,000  Level Boston Center
Mon 06:46:02 PM 41.8428 -71.8044 215° Southwest 359 413 30,000  Level Boston Center
Mon 06:47:02 PM 41.7597 -71.8806 214° Southwest 361 415 30,000  Level Boston Center
Mon 06:48:02 PM 41.6772 -71.9567 215° Southwest 361 415 30,000  Level Boston Center
Mon 06:49:06 PM 41.5939 -72.0322 214° Southwest 362 417 30,000  Level Boston Center
Mon 06:50:06 PM 41.5081 -72.1114 215° Southwest 362 417 30,000  Level Boston Center
Mon 06:51:08 PM 41.4247 -72.1875 214° Southwest 362 417 30,000  Level Boston Center
Mon 06:52:08 PM 41.3408 -72.2636 214° Southwest 365 420 30,000  Level Boston Center
Mon 06:53:09 PM 41.2592 -72.3386 215° Southwest 367 422 30,000  Level Boston Center
Mon 06:54:12 PM 41.1739 -72.4172 215° Southwest 371 427 30,000  Level Boston Center
Mon 06:55:11 PM 41.0892 -72.4933 214° Southwest 368 423 30,000  Level Boston Center
Mon 06:56:15 PM 40.9864 -72.5842 214° Southwest 374 430 30,000  Level Boston Center
Mon 06:57:16 PM 40.9008 -72.6656 216° Southwest 381 438 30,000 -198 Level Boston Center
Mon 06:58:16 PM 40.8156 -72.7406 214° Southwest 376 433 29,600 -1,190 Descending Boston Center
Mon 06:59:17 PM 40.7281 -72.8175 214° Southwest 371 427 27,600 -1,918 Descending Boston Center
Mon 07:00:18 PM 40.6442 -72.8919 214° Southwest 365 420 25,700 -1,884 Descending Boston Center
Mon 07:01:18 PM 40.5617 -72.9644 214° Southwest 360 414 23,800 -1,854 Descending Boston Center
Mon 07:02:21 PM 40.4806 -73.0378 215° Southwest 353 406 21,900 -1,776 Descending Boston Center
Mon 07:03:23 PM 40.4006 -73.1078 214° Southwest 346 398 20,100 -927 Descending Boston Center
Mon 07:04:24 PM 40.3206 -73.1778 214° Southwest 346 398 20,000 -50 Descending Boston Center
Mon 07:05:24 PM 40.2408 -73.2475 214° Southwest 346 398 20,000  Level Boston Center
Mon 07:06:24 PM 40.1542 -73.3239 214° Southwest 346 398 20,000  Level Boston Center
Mon 07:07:25 PM 40.0744 -73.3936 214° Southwest 345 397 20,000  Level Boston Center
Mon 07:08:29 PM 39.9933 -73.4628 213° Southwest 346 398 20,000  Level Boston Center
Mon 07:09:30 PM 39.9039 -73.5422 214° Southwest 348 400 20,000  Level Boston Center
Mon 07:10:31 PM 39.8419 -73.6372 230° Southwest 344 396 20,000  Level Boston Center
Mon 07:11:31 PM 39.7817 -73.7331 231° Southwest 342 394 20,000 -49 Level Boston Center
Mon 07:12:33 PM 39.7208 -73.8294 231° Southwest 345 397 19,900 -909 Descending Boston Center
Mon 07:13:43 PM 39.6458 -73.9450 230° Southwest 347 399 18,000 -1,846 Descending Washington Center
Mon 07:14:43 PM 39.5867 -74.0378 230° Southwest 347 399 15,900 -1,900 Descending Washington Center
Mon 07:15:43 PM 39.5358 -74.1278 234° Southwest 333 383 14,200 -1,424 Descending Washington Center
Mon 07:16:41 PM 39.5244 -74.2383 262° West 304 350 13,100 -1,017 Descending Washington Center
Mon 07:17:41 PM 39.5278 -74.3458 272° West 303 349 12,200 -843 Descending Washington Center
Mon 07:18:42 PM 39.5308 -74.4533 272° West 303 349 11,400 -852 Descending Washington Center
Mon 07:20:37 PM 39.5333 -74.6500 271° West 271 312 9,700 -823 Descending Philadelphia TRACON
Mon 07:21:37 PM 39.5333 -74.7500 270° West 277 319 9,000 -650 Descending Philadelphia TRACON
Mon 07:22:37 PM 39.5333 -74.8500 270° West 274 315 8,400 -650 Descending Philadelphia TRACON
Mon 07:23:37 PM 39.5333 -74.9500 270° West 229 264 7,700 -700 Descending Philadelphia TRACON
Mon 07:24:37 PM 39.5333 -75.0333 270° West 230 265 7,000 -333 Descending Philadelphia TRACON
Mon 07:25:43 PM 39.5833 -75.0833 322° Northwest 226 260 7,000  Level Philadelphia TRACON
Mon 07:26:43 PM 39.6333 -75.1333 322° Northwest 208 239 7,000 -250 Level Philadelphia TRACON
Mon 07:27:43 PM 39.6833 -75.1667 333° Northwest 199 229 6,500 -474 Descending Philadelphia TRACON
Mon 07:28:37 PM 39.7333 -75.1833 346° North 203 234 6,100 -250 Descending Philadelphia TRACON
Mon 07:29:43 PM 39.7667 -75.1333 49° Northeast 215 247 6,000 -50 Descending Philadelphia TRACON
Mon 07:30:37 PM 39.7667 -75.0667 90° East 215 247 6,000  Level Philadelphia TRACON
Mon 07:31:37 PM 39.7833 -74.9833 75° East 215 247 6,000 -200 Level Philadelphia TRACON
Mon 07:32:37 PM 39.8000 -74.9167 72° East 213 245 5,600 -571 Descending Philadelphia TRACON
Mon 07:33:43 PM 39.8667 -74.9000 11° North 199 229 4,800 -1,095 Descending Philadelphia TRACON
Mon 07:34:43 PM 39.9000 -74.9500 311° West 191 220 3,300 -1,000 Descending Philadelphia TRACON
Mon 07:35:43 PM 39.9000 -75.0167 270° West 181 208 2,800 -496 Descending Philadelphia TRACON
Mon 07:36:44 PM 39.9000 -75.0833 270° West 165 190 2,300 -694 Descending Philadelphia TRACON
Mon 07:37:44 PM 39.9000 -75.1333 270° West 153 176 1,400 -800 Descending Philadelphia TRACON
Mon 07:38:44 PM 39.8833 -75.1833 247° West 117 135 700 -700 Descending Philadelphia TRACON

Login

Don't have an account? Register now (free) for customized features, flight alerts, and more!